sensor_id;sensor_type;location;lat;lon;timestamp;P1;durP1;ratioP1;P2;durP2;ratioP2
37231;SDS011;23125;48.156;15.954;2023-11-21T00:00:19;6.15;;;2.22;;
37231;SDS011;23125;48.156;15.954;2023-11-21T00:02:45;9.38;;;3.78;;
37231;SDS011;23125;48.156;15.954;2023-11-21T00:05:12;9.98;;;3.00;;
37231;SDS011;23125;48.156;15.954;2023-11-21T00:07:39;5.65;;;2.38;;
37231;SDS011;23125;48.156;15.954;2023-11-21T00:10:07;6.57;;;2.70;;
37231;SDS011;23125;48.156;15.954;2023-11-21T00:12:35;3.70;;;1.70;;
37231;SDS011;23125;48.156;15.954;2023-11-21T00:15:02;8.07;;;2.33;;
37231;SDS011;23125;48.156;15.954;2023-11-21T00:17:34;5.38;;;1.80;;
37231;SDS011;23125;48.156;15.954;2023-11-21T00:20:00;6.25;;;2.20;;
37231;SDS011;23125;48.156;15.954;2023-11-21T00:22:26;4.60;;;1.85;;
37231;SDS011;23125;48.156;15.954;2023-11-21T00:24:51;7.53;;;2.30;;
37231;SDS011;23125;48.156;15.954;2023-11-21T00:27:17;6.68;;;3.00;;
37231;SDS011;23125;48.156;15.954;2023-11-21T00:29:43;5.53;;;2.63;;
37231;SDS011;23125;48.156;15.954;2023-11-21T00:32:09;6.18;;;2.45;;
37231;SDS011;23125;48.156;15.954;2023-11-21T00:34:35;6.18;;;1.98;;
37231;SDS011;23125;48.156;15.954;2023-11-21T00:37:00;5.30;;;1.30;;
37231;SDS011;23125;48.156;15.954;2023-11-21T00:39:28;3.33;;;1.65;;
37231;SDS011;23125;48.156;15.954;2023-11-21T00:41:53;4.63;;;1.50;;
37231;SDS011;23125;48.156;15.954;2023-11-21T00:44:19;6.68;;;1.40;;
37231;SDS011;23125;48.156;15.954;2023-11-21T00:46:45;6.13;;;2.00;;
37231;SDS011;23125;48.156;15.954;2023-11-21T00:49:11;8.73;;;3.08;;
37231;SDS011;23125;48.156;15.954;2023-11-21T00:51:36;5.50;;;2.33;;
37231;SDS011;23125;48.156;15.954;2023-11-21T00:54:02;4.47;;;2.80;;
37231;SDS011;23125;48.156;15.954;2023-11-21T00:56:28;7.53;;;2.83;;
37231;SDS011;23125;48.156;15.954;2023-11-21T00:58:54;6.45;;;2.95;;
37231;SDS011;23125;48.156;15.954;2023-11-21T01:01:20;8.52;;;2.58;;
37231;SDS011;23125;48.156;15.954;2023-11-21T01:03:49;7.15;;;2.85;;
37231;SDS011;23125;48.156;15.954;2023-11-21T01:06:16;6.07;;;2.80;;
37231;SDS011;23125;48.156;15.954;2023-11-21T01:08:43;4.53;;;2.42;;
37231;SDS011;23125;48.156;15.954;2023-11-21T01:11:10;6.78;;;2.40;;
37231;SDS011;23125;48.156;15.954;2023-11-21T01:13:38;11.95;;;2.45;;
37231;SDS011;23125;48.156;15.954;2023-11-21T01:16:05;5.45;;;2.40;;
37231;SDS011;23125;48.156;15.954;2023-11-21T01:18:32;3.42;;;1.90;;
37231;SDS011;23125;48.156;15.954;2023-11-21T01:20:58;5.75;;;2.25;;
37231;SDS011;23125;48.156;15.954;2023-11-21T01:23:27;13.02;;;2.00;;
37231;SDS011;23125;48.156;15.954;2023-11-21T01:25:53;4.28;;;1.80;;
37231;SDS011;23125;48.156;15.954;2023-11-21T01:28:21;3.85;;;1.67;;
37231;SDS011;23125;48.156;15.954;2023-11-21T01:30:47;4.82;;;2.00;;
37231;SDS011;23125;48.156;15.954;2023-11-21T01:33:14;3.10;;;1.60;;
37231;SDS011;23125;48.156;15.954;2023-11-21T01:35:41;5.38;;;1.30;;
37231;SDS011;23125;48.156;15.954;2023-11-21T01:38:07;4.97;;;1.73;;
37231;SDS011;23125;48.156;15.954;2023-11-21T01:40:33;8.52;;;1.60;;
37231;SDS011;23125;48.156;15.954;2023-11-21T01:43:00;6.88;;;1.80;;
37231;SDS011;23125;48.156;15.954;2023-11-21T01:45:28;4.85;;;1.77;;
37231;SDS011;23125;48.156;15.954;2023-11-21T01:47:56;3.63;;;1.27;;
37231;SDS011;23125;48.156;15.954;2023-11-21T01:52:52;2.60;;;1.35;;
37231;SDS011;23125;48.156;15.954;2023-11-21T01:55:19;3.90;;;1.70;;
37231;SDS011;23125;48.156;15.954;2023-11-21T01:57:46;5.38;;;1.95;;
37231;SDS011;23125;48.156;15.954;2023-11-21T02:00:12;4.78;;;2.13;;
37231;SDS011;23125;48.156;15.954;2023-11-21T02:02:44;7.90;;;2.78;;
37231;SDS011;23125;48.156;15.954;2023-11-21T02:05:11;8.60;;;3.50;;
37231;SDS011;23125;48.156;15.954;2023-11-21T02:07:39;8.00;;;3.22;;
37231;SDS011;23125;48.156;15.954;2023-11-21T02:10:07;5.93;;;2.65;;
37231;SDS011;23125;48.156;15.954;2023-11-21T02:12:35;8.80;;;3.15;;
37231;SDS011;23125;48.156;15.954;2023-11-21T02:15:05;3.90;;;2.20;;
37231;SDS011;23125;48.156;15.954;2023-11-21T02:17:35;5.63;;;2.60;;
37231;SDS011;23125;48.156;15.954;2023-11-21T02:20:02;5.70;;;2.60;;
37231;SDS011;23125;48.156;15.954;2023-11-21T02:22:29;6.22;;;2.20;;
37231;SDS011;23125;48.156;15.954;2023-11-21T02:24:59;5.75;;;1.95;;
37231;SDS011;23125;48.156;15.954;2023-11-21T02:27:24;4.93;;;1.77;;
37231;SDS011;23125;48.156;15.954;2023-11-21T02:29:52;3.85;;;1.45;;
37231;SDS011;23125;48.156;15.954;2023-11-21T02:32:18;3.78;;;2.00;;
37231;SDS011;23125;48.156;15.954;2023-11-21T02:34:44;5.60;;;1.85;;
37231;SDS011;23125;48.156;15.954;2023-11-21T02:37:10;4.15;;;1.63;;
37231;SDS011;23125;48.156;15.954;2023-11-21T02:39:36;3.33;;;1.58;;
37231;SDS011;23125;48.156;15.954;2023-11-21T02:42:03;4.95;;;1.48;;
37231;SDS011;23125;48.156;15.954;2023-11-21T02:44:29;3.80;;;1.58;;
37231;SDS011;23125;48.156;15.954;2023-11-21T02:46:55;6.50;;;1.77;;
37231;SDS011;23125;48.156;15.954;2023-11-21T02:49:23;5.50;;;1.70;;
37231;SDS011;23125;48.156;15.954;2023-11-21T02:51:48;5.03;;;1.48;;
37231;SDS011;23125;48.156;15.954;2023-11-21T02:54:14;4.68;;;1.83;;
37231;SDS011;23125;48.156;15.954;2023-11-21T02:56:42;4.68;;;1.90;;
37231;SDS011;23125;48.156;15.954;2023-11-21T02:59:08;3.38;;;1.60;;
37231;SDS011;23125;48.156;15.954;2023-11-21T03:01:34;4.55;;;1.58;;
37231;SDS011;23125;48.156;15.954;2023-11-21T03:03:59;2.72;;;1.30;;
37231;SDS011;23125;48.156;15.954;2023-11-21T03:06:26;4.53;;;1.25;;
37231;SDS011;23125;48.156;15.954;2023-11-21T03:08:52;4.10;;;1.52;;
37231;SDS011;23125;48.156;15.954;2023-11-21T03:11:18;2.65;;;1.27;;
37231;SDS011;23125;48.156;15.954;2023-11-21T03:13:44;3.72;;;1.70;;
37231;SDS011;23125;48.156;15.954;2023-11-21T03:16:10;4.13;;;1.30;;
37231;SDS011;23125;48.156;15.954;2023-11-21T03:18:38;3.88;;;1.45;;
37231;SDS011;23125;48.156;15.954;2023-11-21T03:21:04;5.38;;;1.20;;
37231;SDS011;23125;48.156;15.954;2023-11-21T03:23:32;5.82;;;1.35;;
37231;SDS011;23125;48.156;15.954;2023-11-21T03:25:58;3.58;;;1.73;;
37231;SDS011;23125;48.156;15.954;2023-11-21T03:28:25;4.05;;;1.23;;
37231;SDS011;23125;48.156;15.954;2023-11-21T03:30:52;4.50;;;1.70;;
37231;SDS011;23125;48.156;15.954;2023-11-21T03:33:18;2.30;;;1.10;;
37231;SDS011;23125;48.156;15.954;2023-11-21T03:35:44;5.95;;;1.58;;
37231;SDS011;23125;48.156;15.954;2023-11-21T03:38:10;4.28;;;1.33;;
37231;SDS011;23125;48.156;15.954;2023-11-21T03:40:36;3.40;;;1.10;;
37231;SDS011;23125;48.156;15.954;2023-11-21T03:43:02;4.18;;;0.93;;
37231;SDS011;23125;48.156;15.954;2023-11-21T03:45:28;3.83;;;0.82;;
37231;SDS011;23125;48.156;15.954;2023-11-21T03:47:54;4.70;;;1.13;;
37231;SDS011;23125;48.156;15.954;2023-11-21T03:50:19;2.38;;;0.85;;
37231;SDS011;23125;48.156;15.954;2023-11-21T03:52:45;5.18;;;1.10;;
37231;SDS011;23125;48.156;15.954;2023-11-21T03:55:11;8.90;;;1.30;;
37231;SDS011;23125;48.156;15.954;2023-11-21T03:57:37;1.80;;;1.10;;
37231;SDS011;23125;48.156;15.954;2023-11-21T04:00:03;5.30;;;1.02;;
37231;SDS011;23125;48.156;15.954;2023-11-21T04:02:33;4.28;;;1.33;;
37231;SDS011;23125;48.156;15.954;2023-11-21T04:04:59;7.18;;;1.08;;
37231;SDS011;23125;48.156;15.954;2023-11-21T04:07:25;3.22;;;1.10;;
37231;SDS011;23125;48.156;15.954;2023-11-21T04:09:52;4.05;;;1.02;;
37231;SDS011;23125;48.156;15.954;2023-11-21T04:12:19;3.58;;;1.25;;
37231;SDS011;23125;48.156;15.954;2023-11-21T04:14:45;3.22;;;1.25;;
37231;SDS011;23125;48.156;15.954;2023-11-21T04:17:11;5.40;;;1.20;;
37231;SDS011;23125;48.156;15.954;2023-11-21T04:19:37;2.60;;;1.10;;
37231;SDS011;23125;48.156;15.954;2023-11-21T04:22:03;4.95;;;1.58;;
37231;SDS011;23125;48.156;15.954;2023-11-21T04:24:29;5.88;;;1.30;;
37231;SDS011;23125;48.156;15.954;2023-11-21T04:26:55;2.17;;;1.10;;
37231;SDS011;23125;48.156;15.954;2023-11-21T04:29:21;3.58;;;1.27;;
37231;SDS011;23125;48.156;15.954;2023-11-21T04:31:47;2.95;;;1.42;;
37231;SDS011;23125;48.156;15.954;2023-11-21T04:34:14;7.22;;;1.20;;
37231;SDS011;23125;48.156;15.954;2023-11-21T04:36:40;2.58;;;0.95;;
37231;SDS011;23125;48.156;15.954;2023-11-21T04:39:06;4.93;;;1.30;;
37231;SDS011;23125;48.156;15.954;2023-11-21T04:41:32;3.05;;;1.48;;
37231;SDS011;23125;48.156;15.954;2023-11-21T04:43:58;10.10;;;1.40;;
37231;SDS011;23125;48.156;15.954;2023-11-21T04:46:25;5.10;;;1.60;;
37231;SDS011;23125;48.156;15.954;2023-11-21T04:48:51;4.97;;;1.33;;
37231;SDS011;23125;48.156;15.954;2023-11-21T04:51:17;4.60;;;1.25;;
37231;SDS011;23125;48.156;15.954;2023-11-21T04:53:43;4.82;;;1.27;;
37231;SDS011;23125;48.156;15.954;2023-11-21T04:56:09;4.57;;;1.25;;
37231;SDS011;23125;48.156;15.954;2023-11-21T04:58:35;5.53;;;1.33;;
37231;SDS011;23125;48.156;15.954;2023-11-21T05:01:01;2.90;;;1.13;;
37231;SDS011;23125;48.156;15.954;2023-11-21T05:03:27;3.20;;;1.50;;
37231;SDS011;23125;48.156;15.954;2023-11-21T05:05:55;3.72;;;1.58;;
37231;SDS011;23125;48.156;15.954;2023-11-21T05:08:21;7.30;;;1.55;;
37231;SDS011;23125;48.156;15.954;2023-11-21T05:10:47;6.10;;;1.27;;
37231;SDS011;23125;48.156;15.954;2023-11-21T05:13:14;4.43;;;1.55;;
37231;SDS011;23125;48.156;15.954;2023-11-21T05:15:43;3.33;;;1.27;;
37231;SDS011;23125;48.156;15.954;2023-11-21T05:18:09;5.53;;;1.60;;
37231;SDS011;23125;48.156;15.954;2023-11-21T05:20:36;3.80;;;1.73;;
37231;SDS011;23125;48.156;15.954;2023-11-21T05:23:03;7.13;;;1.83;;
37231;SDS011;23125;48.156;15.954;2023-11-21T05:25:30;4.60;;;1.95;;
37231;SDS011;23125;48.156;15.954;2023-11-21T05:27:55;4.32;;;1.73;;
37231;SDS011;23125;48.156;15.954;2023-11-21T05:30:21;8.20;;;2.20;;
37231;SDS011;23125;48.156;15.954;2023-11-21T05:32:47;3.92;;;1.98;;
37231;SDS011;23125;48.156;15.954;2023-11-21T05:35:14;6.53;;;2.30;;
37231;SDS011;23125;48.156;15.954;2023-11-21T05:37:41;6.03;;;2.80;;
37231;SDS011;23125;48.156;15.954;2023-11-21T05:40:07;10.38;;;2.70;;
37231;SDS011;23125;48.156;15.954;2023-11-21T05:42:35;6.43;;;3.40;;
37231;SDS011;23125;48.156;15.954;2023-11-21T05:45:04;9.82;;;2.53;;
37231;SDS011;23125;48.156;15.954;2023-11-21T05:47:37;6.43;;;2.63;;
37231;SDS011;23125;48.156;15.954;2023-11-21T05:50:06;6.90;;;2.85;;
37231;SDS011;23125;48.156;15.954;2023-11-21T05:52:40;10.50;;;3.17;;
37231;SDS011;23125;48.156;15.954;2023-11-21T05:55:07;7.50;;;3.08;;
37231;SDS011;23125;48.156;15.954;2023-11-21T05:57:34;8.85;;;3.75;;
37231;SDS011;23125;48.156;15.954;2023-11-21T06:00:07;8.07;;;3.55;;
37231;SDS011;23125;48.156;15.954;2023-11-21T06:02:48;9.77;;;3.65;;
37231;SDS011;23125;48.156;15.954;2023-11-21T06:05:17;9.00;;;3.35;;
37231;SDS011;23125;48.156;15.954;2023-11-21T06:07:45;7.95;;;3.97;;
37231;SDS011;23125;48.156;15.954;2023-11-21T06:10:11;8.77;;;4.15;;
37231;SDS011;23125;48.156;15.954;2023-11-21T06:12:39;9.48;;;4.28;;
37231;SDS011;23125;48.156;15.954;2023-11-21T06:15:08;7.30;;;3.97;;
37231;SDS011;23125;48.156;15.954;2023-11-21T06:17:38;6.70;;;3.78;;
37231;SDS011;23125;48.156;15.954;2023-11-21T06:20:06;8.00;;;3.38;;
37231;SDS011;23125;48.156;15.954;2023-11-21T06:22:37;8.32;;;3.63;;
37231;SDS011;23125;48.156;15.954;2023-11-21T06:25:04;10.20;;;3.53;;
37231;SDS011;23125;48.156;15.954;2023-11-21T06:27:31;8.45;;;2.65;;
37231;SDS011;23125;48.156;15.954;2023-11-21T06:29:59;7.22;;;2.78;;
37231;SDS011;23125;48.156;15.954;2023-11-21T06:32:25;6.90;;;3.00;;
37231;SDS011;23125;48.156;15.954;2023-11-21T06:34:51;7.20;;;2.00;;
37231;SDS011;23125;48.156;15.954;2023-11-21T06:37:19;10.98;;;2.97;;
37231;SDS011;23125;48.156;15.954;2023-11-21T06:39:49;6.75;;;2.67;;
37231;SDS011;23125;48.156;15.954;2023-11-21T06:42:17;10.65;;;3.35;;
37231;SDS011;23125;48.156;15.954;2023-11-21T06:44:47;7.25;;;3.30;;
37231;SDS011;23125;48.156;15.954;2023-11-21T06:47:14;6.03;;;3.22;;
37231;SDS011;23125;48.156;15.954;2023-11-21T06:49:41;11.45;;;3.97;;
37231;SDS011;23125;48.156;15.954;2023-11-21T06:52:08;10.07;;;4.45;;
37231;SDS011;23125;48.156;15.954;2023-11-21T06:54:34;11.98;;;5.60;;
37231;SDS011;23125;48.156;15.954;2023-11-21T06:57:00;13.93;;;5.15;;
37231;SDS011;23125;48.156;15.954;2023-11-21T06:59:28;12.68;;;5.95;;
37231;SDS011;23125;48.156;15.954;2023-11-21T07:01:54;11.60;;;5.75;;
37231;SDS011;23125;48.156;15.954;2023-11-21T07:04:20;18.90;;;7.20;;
37231;SDS011;23125;48.156;15.954;2023-11-21T07:06:46;14.57;;;6.97;;
37231;SDS011;23125;48.156;15.954;2023-11-21T07:09:12;12.43;;;5.38;;
37231;SDS011;23125;48.156;15.954;2023-11-21T07:11:38;15.93;;;6.22;;
37231;SDS011;23125;48.156;15.954;2023-11-21T07:14:04;12.15;;;5.05;;
37231;SDS011;23125;48.156;15.954;2023-11-21T07:16:35;8.27;;;4.53;;
37231;SDS011;23125;48.156;15.954;2023-11-21T07:19:06;11.90;;;5.93;;
37231;SDS011;23125;48.156;15.954;2023-11-21T07:21:32;12.07;;;4.93;;
37231;SDS011;23125;48.156;15.954;2023-11-21T07:24:02;11.75;;;5.97;;
37231;SDS011;23125;48.156;15.954;2023-11-21T07:28:55;12.63;;;6.70;;
37231;SDS011;23125;48.156;15.954;2023-11-21T07:31:21;9.57;;;4.72;;
37231;SDS011;23125;48.156;15.954;2023-11-21T07:33:49;11.73;;;4.10;;
37231;SDS011;23125;48.156;15.954;2023-11-21T07:36:16;9.20;;;5.03;;
37231;SDS011;23125;48.156;15.954;2023-11-21T07:38:48;11.45;;;4.95;;
37231;SDS011;23125;48.156;15.954;2023-11-21T07:41:15;9.57;;;4.28;;
37231;SDS011;23125;48.156;15.954;2023-11-21T07:43:43;7.15;;;4.28;;
37231;SDS011;23125;48.156;15.954;2023-11-21T07:48:41;10.55;;;4.45;;
37231;SDS011;23125;48.156;15.954;2023-11-21T07:51:08;9.02;;;3.42;;
37231;SDS011;23125;48.156;15.954;2023-11-21T07:53:35;7.05;;;3.20;;
37231;SDS011;23125;48.156;15.954;2023-11-21T07:56:04;7.10;;;2.85;;
37231;SDS011;23125;48.156;15.954;2023-11-21T07:58:33;4.80;;;2.50;;
37231;SDS011;23125;48.156;15.954;2023-11-21T08:00:59;7.38;;;2.65;;
37231;SDS011;23125;48.156;15.954;2023-11-21T08:03:25;6.15;;;2.58;;
37231;SDS011;23125;48.156;15.954;2023-11-21T08:05:52;6.82;;;2.10;;
37231;SDS011;23125;48.156;15.954;2023-11-21T08:08:18;8.35;;;2.20;;
37231;SDS011;23125;48.156;15.954;2023-11-21T08:10:44;4.82;;;1.77;;
37231;SDS011;23125;48.156;15.954;2023-11-21T08:13:13;4.68;;;1.67;;
37231;SDS011;23125;48.156;15.954;2023-11-21T08:15:42;6.07;;;2.15;;
37231;SDS011;23125;48.156;15.954;2023-11-21T08:18:11;7.55;;;2.90;;
37231;SDS011;23125;48.156;15.954;2023-11-21T08:20:40;7.55;;;1.75;;
37231;SDS011;23125;48.156;15.954;2023-11-21T08:23:06;3.38;;;1.63;;
37231;SDS011;23125;48.156;15.954;2023-11-21T08:25:32;5.25;;;1.40;;
37231;SDS011;23125;48.156;15.954;2023-11-21T08:28:00;5.18;;;1.73;;
37231;SDS011;23125;48.156;15.954;2023-11-21T08:30:26;5.70;;;1.45;;
37231;SDS011;23125;48.156;15.954;2023-11-21T08:32:55;4.00;;;1.90;;
37231;SDS011;23125;48.156;15.954;2023-11-21T08:35:23;4.03;;;1.73;;
37231;SDS011;23125;48.156;15.954;2023-11-21T08:37:52;5.35;;;1.90;;
37231;SDS011;23125;48.156;15.954;2023-11-21T08:40:18;7.82;;;1.92;;
37231;SDS011;23125;48.156;15.954;2023-11-21T08:42:46;5.90;;;1.77;;
37231;SDS011;23125;48.156;15.954;2023-11-21T08:45:13;3.53;;;1.90;;
37231;SDS011;23125;48.156;15.954;2023-11-21T08:47:40;4.95;;;1.45;;
37231;SDS011;23125;48.156;15.954;2023-11-21T08:50:06;4.15;;;2.20;;
37231;SDS011;23125;48.156;15.954;2023-11-21T08:52:33;5.47;;;1.77;;
37231;SDS011;23125;48.156;15.954;2023-11-21T08:54:59;6.57;;;2.10;;
37231;SDS011;23125;48.156;15.954;2023-11-21T08:57:36;5.05;;;1.83;;
37231;SDS011;23125;48.156;15.954;2023-11-21T09:00:08;9.02;;;2.40;;
37231;SDS011;23125;48.156;15.954;2023-11-21T09:02:42;5.32;;;3.28;;
37231;SDS011;23125;48.156;15.954;2023-11-21T09:05:09;8.00;;;3.30;;
37231;SDS011;23125;48.156;15.954;2023-11-21T09:07:36;5.43;;;2.50;;
37231;SDS011;23125;48.156;15.954;2023-11-21T09:10:03;5.78;;;2.20;;
37231;SDS011;23125;48.156;15.954;2023-11-21T09:12:33;3.80;;;2.33;;
37231;SDS011;23125;48.156;15.954;2023-11-21T09:15:02;6.88;;;2.40;;
37231;SDS011;23125;48.156;15.954;2023-11-21T09:17:29;5.30;;;2.65;;
37231;SDS011;23125;48.156;15.954;2023-11-21T09:19:55;8.35;;;3.65;;
37231;SDS011;23125;48.156;15.954;2023-11-21T09:22:22;6.28;;;2.20;;
37231;SDS011;23125;48.156;15.954;2023-11-21T09:24:50;12.98;;;6.28;;
37231;SDS011;23125;48.156;15.954;2023-11-21T09:27:17;11.30;;;2.35;;
37231;SDS011;23125;48.156;15.954;2023-11-21T09:29:44;15.30;;;4.68;;
37231;SDS011;23125;48.156;15.954;2023-11-21T09:32:10;8.90;;;4.18;;
37231;SDS011;23125;48.156;15.954;2023-11-21T09:34:39;7.43;;;3.38;;
37231;SDS011;23125;48.156;15.954;2023-11-21T09:37:05;4.47;;;1.63;;
37231;SDS011;23125;48.156;15.954;2023-11-21T09:39:32;5.03;;;2.80;;
37231;SDS011;23125;48.156;15.954;2023-11-21T09:42:04;7.05;;;2.08;;
37231;SDS011;23125;48.156;15.954;2023-11-21T09:47:29;5.70;;;1.92;;
37231;SDS011;23125;48.156;15.954;2023-11-21T09:49:56;11.43;;;3.00;;
37231;SDS011;23125;48.156;15.954;2023-11-21T09:52:26;6.55;;;2.22;;
37231;SDS011;23125;48.156;15.954;2023-11-21T09:54:53;6.10;;;4.15;;
37231;SDS011;23125;48.156;15.954;2023-11-21T09:57:24;4.32;;;1.70;;
37231;SDS011;23125;48.156;15.954;2023-11-21T09:59:51;4.80;;;2.20;;
37231;SDS011;23125;48.156;15.954;2023-11-21T10:02:27;8.25;;;1.70;;
37231;SDS011;23125;48.156;15.954;2023-11-21T10:04:58;5.55;;;1.92;;
37231;SDS011;23125;48.156;15.954;2023-11-21T10:07:25;4.60;;;1.95;;
37231;SDS011;23125;48.156;15.954;2023-11-21T10:09:52;4.07;;;2.10;;
37231;SDS011;23125;48.156;15.954;2023-11-21T10:12:19;6.03;;;1.83;;
37231;SDS011;23125;48.156;15.954;2023-11-21T10:14:48;5.97;;;1.88;;
37231;SDS011;23125;48.156;15.954;2023-11-21T10:17:18;9.38;;;1.58;;
37231;SDS011;23125;48.156;15.954;2023-11-21T10:19:46;6.38;;;1.85;;
37231;SDS011;23125;48.156;15.954;2023-11-21T10:22:13;10.63;;;3.90;;
37231;SDS011;23125;48.156;15.954;2023-11-21T10:24:41;13.90;;;5.47;;
37231;SDS011;23125;48.156;15.954;2023-11-21T10:27:08;11.23;;;4.43;;
37231;SDS011;23125;48.156;15.954;2023-11-21T10:29:34;15.95;;;6.97;;
37231;SDS011;23125;48.156;15.954;2023-11-21T10:32:03;13.43;;;6.13;;
37231;SDS011;23125;48.156;15.954;2023-11-21T10:34:30;14.95;;;6.70;;
37231;SDS011;23125;48.156;15.954;2023-11-21T10:36:56;11.77;;;5.85;;
37231;SDS011;23125;48.156;15.954;2023-11-21T10:39:23;13.05;;;7.60;;
37231;SDS011;23125;48.156;15.954;2023-11-21T10:41:54;9.57;;;4.28;;
37231;SDS011;23125;48.156;15.954;2023-11-21T10:44:21;7.25;;;3.40;;
37231;SDS011;23125;48.156;15.954;2023-11-21T10:46:52;5.60;;;1.45;;
37231;SDS011;23125;48.156;15.954;2023-11-21T10:49:23;4.43;;;1.48;;
37231;SDS011;23125;48.156;15.954;2023-11-21T10:54:23;5.70;;;1.20;;
37231;SDS011;23125;48.156;15.954;2023-11-21T10:56:53;2.65;;;1.40;;
37231;SDS011;23125;48.156;15.954;2023-11-21T10:59:23;5.45;;;2.42;;
37231;SDS011;23125;48.156;15.954;2023-11-21T11:01:57;6.55;;;1.40;;
37231;SDS011;23125;48.156;15.954;2023-11-21T11:04:24;3.67;;;1.00;;
37231;SDS011;23125;48.156;15.954;2023-11-21T11:07:00;3.50;;;1.00;;
37231;SDS011;23125;48.156;15.954;2023-11-21T11:09:31;3.60;;;1.42;;
37231;SDS011;23125;48.156;15.954;2023-11-21T11:12:03;5.93;;;1.10;;
37231;SDS011;23125;48.156;15.954;2023-11-21T11:14:29;3.80;;;1.60;;
37231;SDS011;23125;48.156;15.954;2023-11-21T11:16:57;3.97;;;1.02;;
37231;SDS011;23125;48.156;15.954;2023-11-21T11:19:25;2.08;;;1.15;;
37231;SDS011;23125;48.156;15.954;2023-11-21T11:22:07;4.60;;;1.17;;
37231;SDS011;23125;48.156;15.954;2023-11-21T11:30:32;2.47;;;0.98;;
37231;SDS011;23125;48.156;15.954;2023-11-21T11:36:02;2.90;;;0.93;;
37231;SDS011;23125;48.156;15.954;2023-11-21T11:38:45;4.57;;;0.98;;
37231;SDS011;23125;48.156;15.954;2023-11-21T11:41:15;3.00;;;1.00;;
37231;SDS011;23125;48.156;15.954;2023-11-21T11:43:54;1.92;;;0.73;;
37231;SDS011;23125;48.156;15.954;2023-11-21T11:46:20;1.73;;;0.70;;
37231;SDS011;23125;48.156;15.954;2023-11-21T11:49:06;1.58;;;0.60;;
37231;SDS011;23125;48.156;15.954;2023-11-21T11:51:33;4.55;;;0.95;;
37231;SDS011;23125;48.156;15.954;2023-11-21T11:54:01;1.98;;;0.60;;
37231;SDS011;23125;48.156;15.954;2023-11-21T11:56:30;2.10;;;0.70;;
37231;SDS011;23125;48.156;15.954;2023-11-21T11:59:01;2.13;;;0.57;;
37231;SDS011;23125;48.156;15.954;2023-11-21T12:01:28;2.58;;;0.70;;
37231;SDS011;23125;48.156;15.954;2023-11-21T12:06:40;1.92;;;0.70;;
37231;SDS011;23125;48.156;15.954;2023-11-21T12:09:08;3.08;;;1.02;;
37231;SDS011;23125;48.156;15.954;2023-11-21T12:11:47;5.30;;;2.00;;
37231;SDS011;23125;48.156;15.954;2023-11-21T12:14:16;4.78;;;1.63;;
37231;SDS011;23125;48.156;15.954;2023-11-21T12:16:43;7.32;;;3.08;;
37231;SDS011;23125;48.156;15.954;2023-11-21T12:19:11;4.22;;;1.77;;
37231;SDS011;23125;48.156;15.954;2023-11-21T12:21:37;4.75;;;1.80;;
37231;SDS011;23125;48.156;15.954;2023-11-21T12:24:06;3.13;;;1.48;;
37231;SDS011;23125;48.156;15.954;2023-11-21T12:26:36;4.93;;;1.88;;
37231;SDS011;23125;48.156;15.954;2023-11-21T12:29:02;3.10;;;1.65;;
37231;SDS011;23125;48.156;15.954;2023-11-21T12:31:29;4.45;;;1.45;;
37231;SDS011;23125;48.156;15.954;2023-11-21T12:33:56;4.13;;;1.40;;
37231;SDS011;23125;48.156;15.954;2023-11-21T12:36:22;4.97;;;2.10;;
37231;SDS011;23125;48.156;15.954;2023-11-21T12:38:49;3.50;;;1.60;;
37231;SDS011;23125;48.156;15.954;2023-11-21T12:41:15;8.20;;;3.22;;
37231;SDS011;23125;48.156;15.954;2023-11-21T12:43:42;5.50;;;1.98;;
37231;SDS011;23125;48.156;15.954;2023-11-21T12:46:09;7.53;;;4.13;;
37231;SDS011;23125;48.156;15.954;2023-11-21T12:48:39;9.73;;;4.30;;
37231;SDS011;23125;48.156;15.954;2023-11-21T12:51:09;11.57;;;4.60;;
37231;SDS011;23125;48.156;15.954;2023-11-21T12:53:43;11.85;;;5.15;;
37231;SDS011;23125;48.156;15.954;2023-11-21T12:56:10;13.63;;;5.13;;
37231;SDS011;23125;48.156;15.954;2023-11-21T12:58:37;27.77;;;11.32;;
37231;SDS011;23125;48.156;15.954;2023-11-21T13:01:05;26.52;;;11.13;;
37231;SDS011;23125;48.156;15.954;2023-11-21T13:03:37;31.83;;;12.82;;
37231;SDS011;23125;48.156;15.954;2023-11-21T13:06:04;11.57;;;4.10;;
37231;SDS011;23125;48.156;15.954;2023-11-21T13:08:30;28.02;;;13.20;;
37231;SDS011;23125;48.156;15.954;2023-11-21T13:10:58;11.68;;;5.90;;
37231;SDS011;23125;48.156;15.954;2023-11-21T13:13:25;3.78;;;1.63;;
37231;SDS011;23125;48.156;15.954;2023-11-21T13:15:53;8.40;;;4.40;;
37231;SDS011;23125;48.156;15.954;2023-11-21T13:18:21;4.53;;;2.92;;
37231;SDS011;23125;48.156;15.954;2023-11-21T13:20:48;3.72;;;2.38;;
37231;SDS011;23125;48.156;15.954;2023-11-21T13:23:15;3.65;;;1.50;;
37231;SDS011;23125;48.156;15.954;2023-11-21T13:25:42;2.88;;;1.80;;
37231;SDS011;23125;48.156;15.954;2023-11-21T13:28:10;4.85;;;1.73;;
37231;SDS011;23125;48.156;15.954;2023-11-21T13:30:37;6.03;;;1.98;;
37231;SDS011;23125;48.156;15.954;2023-11-21T13:33:05;6.47;;;3.00;;
37231;SDS011;23125;48.156;15.954;2023-11-21T13:35:33;6.15;;;3.05;;
37231;SDS011;23125;48.156;15.954;2023-11-21T13:40:31;9.90;;;4.90;;
37231;SDS011;23125;48.156;15.954;2023-11-21T13:43:00;6.80;;;3.30;;
37231;SDS011;23125;48.156;15.954;2023-11-21T13:45:29;6.18;;;2.92;;
37231;SDS011;23125;48.156;15.954;2023-11-21T13:47:56;7.20;;;3.53;;
37231;SDS011;23125;48.156;15.954;2023-11-21T13:50:25;17.90;;;9.18;;
37231;SDS011;23125;48.156;15.954;2023-11-21T13:52:58;17.40;;;7.13;;
37231;SDS011;23125;48.156;15.954;2023-11-21T13:55:44;5.63;;;3.60;;
37231;SDS011;23125;48.156;15.954;2023-11-21T13:58:11;7.00;;;4.63;;
37231;SDS011;23125;48.156;15.954;2023-11-21T14:00:42;9.07;;;3.22;;
37231;SDS011;23125;48.156;15.954;2023-11-21T14:05:47;5.15;;;2.00;;
37231;SDS011;23125;48.156;15.954;2023-11-21T14:13:18;4.97;;;2.38;;
37231;SDS011;23125;48.156;15.954;2023-11-21T14:15:48;4.38;;;2.35;;
37231;SDS011;23125;48.156;15.954;2023-11-21T14:18:17;4.82;;;2.78;;
37231;SDS011;23125;48.156;15.954;2023-11-21T14:20:51;4.45;;;2.20;;
37231;SDS011;23125;48.156;15.954;2023-11-21T14:23:17;2.67;;;1.40;;
37231;SDS011;23125;48.156;15.954;2023-11-21T14:25:43;4.38;;;2.22;;
37231;SDS011;23125;48.156;15.954;2023-11-21T14:28:09;5.45;;;2.38;;
37231;SDS011;23125;48.156;15.954;2023-11-21T14:30:37;3.75;;;2.60;;
37231;SDS011;23125;48.156;15.954;2023-11-21T14:33:05;4.95;;;2.67;;
37231;SDS011;23125;48.156;15.954;2023-11-21T14:35:31;6.30;;;2.78;;
37231;SDS011;23125;48.156;15.954;2023-11-21T14:38:00;4.03;;;2.35;;
37231;SDS011;23125;48.156;15.954;2023-11-21T14:40:30;5.15;;;2.90;;
37231;SDS011;23125;48.156;15.954;2023-11-21T14:43:04;3.70;;;2.13;;
37231;SDS011;23125;48.156;15.954;2023-11-21T14:45:33;4.50;;;2.20;;
37231;SDS011;23125;48.156;15.954;2023-11-21T14:48:00;5.20;;;2.47;;
37231;SDS011;23125;48.156;15.954;2023-11-21T14:50:41;5.00;;;2.10;;
37231;SDS011;23125;48.156;15.954;2023-11-21T14:53:08;3.97;;;1.80;;
37231;SDS011;23125;48.156;15.954;2023-11-21T14:55:35;2.97;;;2.20;;
37231;SDS011;23125;48.156;15.954;2023-11-21T14:58:16;2.80;;;2.05;;
37231;SDS011;23125;48.156;15.954;2023-11-21T15:00:57;6.07;;;2.20;;
37231;SDS011;23125;48.156;15.954;2023-11-21T15:03:24;3.25;;;1.98;;
37231;SDS011;23125;48.156;15.954;2023-11-21T15:05:57;4.03;;;2.45;;
37231;SDS011;23125;48.156;15.954;2023-11-21T15:08:44;15.45;;;7.18;;
37231;SDS011;23125;48.156;15.954;2023-11-21T15:11:32;18.67;;;7.00;;